createdAt,value
2018-06-24T00:01:44.724Z,4.83
2018-06-24T00:04:12.209Z,4.27
2018-06-24T00:06:39.728Z,4.13
2018-06-24T00:09:08.533Z,4.80
2018-06-24T00:11:36.096Z,4.80
2018-06-24T00:14:03.782Z,5.47
2018-06-24T00:16:31.316Z,5.17
2018-06-24T00:18:58.814Z,6.00
2018-06-24T00:21:26.352Z,6.03
2018-06-24T00:23:53.855Z,4.63
2018-06-24T00:26:21.419Z,4.23
2018-06-24T00:28:48.920Z,4.53
2018-06-24T00:31:16.452Z,5.50
2018-06-24T00:33:44.469Z,4.73
2018-06-24T00:36:11.997Z,5.00
2018-06-24T00:38:39.501Z,4.37
2018-06-24T00:41:06.959Z,4.67
2018-06-24T00:43:34.463Z,5.57
2018-06-24T00:46:01.982Z,4.97
2018-06-24T00:48:29.484Z,5.03
2018-06-24T00:50:57.004Z,5.43
2018-06-24T00:53:24.499Z,4.63
2018-06-24T00:55:51.997Z,4.87
2018-06-24T00:58:19.517Z,4.60
2018-06-24T01:00:47.062Z,5.37
2018-06-24T01:03:14.564Z,5.50
2018-06-24T01:05:42.074Z,5.37
2018-06-24T01:08:09.596Z,5.83
2018-06-24T01:10:37.129Z,4.30
2018-06-24T01:13:04.673Z,4.33
2018-06-24T01:15:32.160Z,7.00
2018-06-24T01:17:59.669Z,6.97
2018-06-24T01:20:27.205Z,6.63
2018-06-24T01:22:54.733Z,4.57
2018-06-24T01:25:22.247Z,4.80
2018-06-24T01:27:49.794Z,5.73
2018-06-24T01:30:17.330Z,6.33
2018-06-24T01:32:44.846Z,5.03
2018-06-24T01:35:12.348Z,6.53
2018-06-24T01:37:39.868Z,6.60
2018-06-24T01:40:07.372Z,5.83
2018-06-24T01:42:34.924Z,5.73
2018-06-24T01:45:02.403Z,7.00
2018-06-24T01:47:29.923Z,5.30
2018-06-24T01:49:58.012Z,5.10
2018-06-24T01:52:25.528Z,5.33
2018-06-24T01:54:53.788Z,6.03
2018-06-24T01:57:21.297Z,5.33
2018-06-24T01:59:48.803Z,6.70
2018-06-24T02:02:16.417Z,6.37
2018-06-24T02:04:43.911Z,5.43
2018-06-24T02:07:11.412Z,5.17
2018-06-24T02:09:38.896Z,5.30
2018-06-24T02:12:06.421Z,6.30
2018-06-24T02:14:33.906Z,6.13
2018-06-24T02:17:01.452Z,5.83
2018-06-24T02:19:28.961Z,6.13
2018-06-24T02:21:56.490Z,5.53
2018-06-24T02:24:24.101Z,5.83
2018-06-24T02:26:51.641Z,5.90
2018-06-24T02:29:49.764Z,5.57
2018-06-24T02:32:17.334Z,6.60
2018-06-24T02:34:44.870Z,6.27
2018-06-24T02:37:12.410Z,5.67
2018-06-24T02:39:39.974Z,5.20
2018-06-24T02:42:07.524Z,5.90
2018-06-24T02:44:35.048Z,5.30
2018-06-24T02:47:02.553Z,5.33
2018-06-24T02:49:30.100Z,5.13
2018-06-24T02:51:57.612Z,5.30
2018-06-24T02:54:25.204Z,6.97
2018-06-24T02:56:52.732Z,5.70
2018-06-24T02:59:20.266Z,5.80
2018-06-24T03:01:47.801Z,7.43
2018-06-24T03:04:15.375Z,6.27
2018-06-24T03:06:42.888Z,7.13
2018-06-24T03:09:11.091Z,6.20
2018-06-24T03:11:38.752Z,6.30
2018-06-24T03:14:06.607Z,5.50
2018-06-24T03:16:34.897Z,6.30
2018-06-24T03:19:02.584Z,6.40
2018-06-24T03:21:30.117Z,7.93
2018-06-24T03:23:57.674Z,6.57
2018-06-24T03:26:25.229Z,6.23
2018-06-24T03:28:52.768Z,6.13
2018-06-24T03:31:20.332Z,5.40
2018-06-24T03:33:47.882Z,5.90
2018-06-24T03:36:15.402Z,6.57
2018-06-24T03:38:42.928Z,6.50
2018-06-24T03:41:10.446Z,6.60
2018-06-24T03:43:38.011Z,5.57
2018-06-24T03:47:35.068Z,6.00
2018-06-24T03:50:02.822Z,6.10
2018-06-24T03:52:30.340Z,6.07
2018-06-24T03:54:57.944Z,5.93
2018-06-24T03:57:25.464Z,6.07
2018-06-24T03:59:52.995Z,6.40
2018-06-24T04:02:20.552Z,6.60
2018-06-24T04:04:48.133Z,6.47
2018-06-24T04:07:15.638Z,6.13
2018-06-24T04:09:43.774Z,6.30
2018-06-24T04:12:11.551Z,7.10
2018-06-24T04:14:39.112Z,5.50
2018-06-24T04:17:07.077Z,5.90
2018-06-24T04:19:34.659Z,6.47
2018-06-24T04:22:02.192Z,6.20
2018-06-24T04:24:29.740Z,6.50
2018-06-24T04:26:57.293Z,6.20
2018-06-24T04:29:24.845Z,6.00
2018-06-24T04:31:52.356Z,6.30
2018-06-24T04:34:19.955Z,7.27
2018-06-24T04:36:47.496Z,6.20
2018-06-24T04:39:15.033Z,6.57
2018-06-24T04:41:42.574Z,5.83
2018-06-24T04:44:10.139Z,5.37
2018-06-24T04:46:37.684Z,5.63
2018-06-24T04:49:05.288Z,5.67
2018-06-24T04:51:32.827Z,4.60
2018-06-24T04:54:00.382Z,5.07
2018-06-24T04:56:27.949Z,5.47
2018-06-24T04:58:55.932Z,4.97
2018-06-24T05:01:23.467Z,5.17
2018-06-24T05:03:51.020Z,5.87
2018-06-24T05:06:18.545Z,6.00
2018-06-24T05:08:46.128Z,6.17
2018-06-24T05:11:13.680Z,5.07
2018-06-24T05:13:41.673Z,6.60
2018-06-24T05:16:09.224Z,6.20
2018-06-24T05:18:37.185Z,6.42
2018-06-24T05:21:04.639Z,5.70
2018-06-24T05:23:32.164Z,5.30
2018-06-24T05:25:59.775Z,5.57
2018-06-24T05:28:27.334Z,5.33
2018-06-24T05:30:54.903Z,5.40
2018-06-24T05:33:22.465Z,5.87
2018-06-24T05:35:50.036Z,5.67
2018-06-24T05:38:17.604Z,4.43
2018-06-24T05:40:45.513Z,5.23
2018-06-24T05:43:12.998Z,5.27
2018-06-24T05:45:40.671Z,5.33
2018-06-24T05:48:08.411Z,5.33
2018-06-24T05:50:36.077Z,6.33
2018-06-24T05:53:03.997Z,4.80
2018-06-24T05:55:32.908Z,5.43
2018-06-24T05:58:00.719Z,5.27
2018-06-24T06:00:28.422Z,4.93
2018-06-24T06:02:56.112Z,5.47
2018-06-24T06:05:23.724Z,5.00
2018-06-24T06:07:51.399Z,5.67
2018-06-24T06:10:19.364Z,4.73
2018-06-24T06:12:47.077Z,5.23
2018-06-24T06:15:14.720Z,5.30
2018-06-24T06:17:42.318Z,5.13
2018-06-24T06:20:10.541Z,6.00
2018-06-24T06:22:38.169Z,5.23
2018-06-24T06:25:06.372Z,6.13
2018-06-24T06:27:34.309Z,5.17
2018-06-24T06:30:02.321Z,5.87
2018-06-24T06:32:29.996Z,6.37
2018-06-24T06:34:57.658Z,5.67
2018-06-24T06:37:25.180Z,6.33
2018-06-24T06:39:52.767Z,5.60
2018-06-24T06:42:20.316Z,6.23
2018-06-24T06:44:47.875Z,5.53
2018-06-24T06:47:15.412Z,5.70
2018-06-24T06:49:42.955Z,6.33
2018-06-24T06:52:10.535Z,6.00
2018-06-24T06:54:38.316Z,5.90
2018-06-24T06:57:06.581Z,5.87
2018-06-24T06:59:34.133Z,6.33
2018-06-24T07:02:01.704Z,6.03
2018-06-24T07:04:29.236Z,6.20
2018-06-24T07:06:56.924Z,6.37
2018-06-24T07:09:24.457Z,5.80
2018-06-24T07:11:52.003Z,5.93
2018-06-24T07:14:19.548Z,6.53
2018-06-24T07:16:47.156Z,7.03
2018-06-24T07:19:14.724Z,7.17
2018-06-24T07:21:42.289Z,7.17
2018-06-24T07:24:09.853Z,6.03
2018-06-24T07:26:37.424Z,5.80
2018-06-24T07:29:04.991Z,6.20
2018-06-24T07:31:32.533Z,5.73
2018-06-24T07:34:00.066Z,5.90
2018-06-24T07:36:27.619Z,5.83
2018-06-24T07:38:55.151Z,6.20
2018-06-24T07:41:23.741Z,5.50
2018-06-24T07:43:51.857Z,6.03
2018-06-24T07:46:19.439Z,5.93
2018-06-24T07:48:46.983Z,5.63
2018-06-24T07:51:14.540Z,5.90
2018-06-24T07:53:42.280Z,6.13
2018-06-24T07:56:09.834Z,6.57
2018-06-24T07:59:08.648Z,7.23
2018-06-24T08:01:36.184Z,7.30
2018-06-24T08:04:03.793Z,6.75
2018-06-24T08:06:31.442Z,6.00
2018-06-24T08:08:58.968Z,5.50
2018-06-24T08:11:26.501Z,6.57
2018-06-24T08:13:54.006Z,4.63
2018-06-24T08:16:21.596Z,5.08
2018-06-24T08:18:49.117Z,4.77
2018-06-24T08:21:16.660Z,4.77
2018-06-24T08:23:49.020Z,5.17
2018-06-24T08:26:20.930Z,4.83
2018-06-24T08:28:50.544Z,5.10
2018-06-24T08:31:18.096Z,4.13
2018-06-24T08:33:45.623Z,4.20
2018-06-24T08:36:13.164Z,4.17
2018-06-24T08:38:40.781Z,5.10
2018-06-24T08:41:08.321Z,4.63
2018-06-24T08:43:35.863Z,4.50
2018-06-24T08:46:03.458Z,4.70
2018-06-24T08:48:31.008Z,4.70
2018-06-24T08:50:58.546Z,5.10
2018-06-24T08:53:26.064Z,4.40
2018-06-24T08:55:53.577Z,4.57
2018-06-24T08:58:21.132Z,4.30
2018-06-24T09:00:48.656Z,4.10
2018-06-24T09:03:16.198Z,5.30
2018-06-24T09:05:43.733Z,6.17
2018-06-24T09:08:11.342Z,6.23
2018-06-24T09:10:38.841Z,5.33
2018-06-24T09:13:06.416Z,6.00
2018-06-24T09:15:33.947Z,6.03
2018-06-24T09:18:01.566Z,5.97
2018-06-24T09:20:29.093Z,5.07
2018-06-24T09:22:56.648Z,4.80
2018-06-24T09:25:24.173Z,4.87
2018-06-24T09:27:51.740Z,4.77
2018-06-24T09:30:19.272Z,5.40
2018-06-24T09:32:46.863Z,5.67
2018-06-24T09:35:14.411Z,5.60
2018-06-24T09:37:41.965Z,5.30
2018-06-24T09:40:09.434Z,4.50
2018-06-24T09:42:36.992Z,4.63
2018-06-24T09:45:04.660Z,5.97
2018-06-24T09:47:32.197Z,5.10
2018-06-24T09:49:59.714Z,5.03
2018-06-24T09:52:27.257Z,5.77
2018-06-24T09:54:54.783Z,5.10
2018-06-24T09:57:22.312Z,5.47
2018-06-24T09:59:49.833Z,5.10
2018-06-24T10:02:17.364Z,4.77
2018-06-24T10:04:44.867Z,5.50
2018-06-24T10:07:12.444Z,5.83
2018-06-24T10:09:39.959Z,5.80
2018-06-24T10:12:07.508Z,5.57
2018-06-24T10:14:35.040Z,5.47
2018-06-24T10:17:03.273Z,4.93
2018-06-24T10:19:30.939Z,4.43
2018-06-24T10:21:58.480Z,4.57
2018-06-24T10:24:26.022Z,4.10
2018-06-24T10:26:53.552Z,3.80
2018-06-24T10:29:21.131Z,3.10
2018-06-24T10:31:49.333Z,3.37
2018-06-24T10:34:16.873Z,3.33
2018-06-24T10:36:44.432Z,3.60
2018-06-24T10:39:12.124Z,3.50
2018-06-24T10:41:39.678Z,3.30
2018-06-24T10:44:07.493Z,3.50
2018-06-24T10:46:35.093Z,3.87
2018-06-24T10:49:02.830Z,4.17
2018-06-24T10:51:30.321Z,3.80
2018-06-24T10:53:58.729Z,3.67
2018-06-24T10:56:26.369Z,3.83
2018-06-24T10:58:55.156Z,4.00
2018-06-24T11:01:22.789Z,3.77
2018-06-24T11:03:50.459Z,4.20
2018-06-24T11:06:18.065Z,3.80
2018-06-24T11:08:45.720Z,3.80
2018-06-24T11:11:13.262Z,3.83
2018-06-24T11:13:40.935Z,4.17
2018-06-24T11:16:08.508Z,3.80
2018-06-24T11:18:36.080Z,3.20
2018-06-24T11:21:03.691Z,3.23
2018-06-24T11:23:31.469Z,3.40
2018-06-24T11:25:59.086Z,4.00
2018-06-24T11:28:26.708Z,3.60
2018-06-24T11:30:54.271Z,3.50
2018-06-24T11:33:21.888Z,4.10
2018-06-24T11:35:49.544Z,3.27
2018-06-24T11:38:17.142Z,3.63
2018-06-24T11:40:44.940Z,3.60
2018-06-24T11:43:12.712Z,3.60
2018-06-24T11:45:40.358Z,3.00
2018-06-24T11:48:08.117Z,3.40
2018-06-24T11:50:36.047Z,3.27
2018-06-24T11:53:03.862Z,3.23
2018-06-24T11:55:31.553Z,3.10
2018-06-24T11:57:59.275Z,3.30
2018-06-24T12:00:27.052Z,3.20
2018-06-24T12:02:54.775Z,3.00
2018-06-24T12:05:22.341Z,3.20
2018-06-24T12:07:50.063Z,2.90
2018-06-24T12:10:17.909Z,3.00
2018-06-24T12:12:46.070Z,3.13
2018-06-24T12:15:14.087Z,3.20
2018-06-24T12:17:41.904Z,3.30
2018-06-24T12:20:09.747Z,3.30
2018-06-24T12:22:37.645Z,3.30
2018-06-24T12:25:05.620Z,3.13
2018-06-24T12:27:33.568Z,3.53
2018-06-24T12:30:02.736Z,3.50
2018-06-24T12:32:30.479Z,3.60
2018-06-24T12:34:58.654Z,4.13
2018-06-24T12:37:26.355Z,3.13
2018-06-24T12:39:54.099Z,2.73
2018-06-24T12:42:23.907Z,2.90
2018-06-24T12:44:51.739Z,3.00
2018-06-24T12:47:19.281Z,3.43
2018-06-24T12:49:46.857Z,3.03
2018-06-24T12:52:14.425Z,2.93
2018-06-24T12:54:41.996Z,2.60
2018-06-24T12:57:09.553Z,3.20
2018-06-24T12:59:37.530Z,2.50
2018-06-24T13:02:04.813Z,3.33
2018-06-24T13:04:32.501Z,3.23
2018-06-24T13:07:00.130Z,3.20
2018-06-24T13:09:28.013Z,3.13
2018-06-24T13:11:55.873Z,2.67
2018-06-24T13:14:24.415Z,3.10
2018-06-24T13:16:52.854Z,3.10
2018-06-24T13:19:21.405Z,3.60
2018-06-24T13:21:49.365Z,3.23
2018-06-24T13:24:17.090Z,2.83
2018-06-24T13:26:44.897Z,3.30
2018-06-24T13:29:12.873Z,3.50
2018-06-24T13:31:40.848Z,3.33
2018-06-24T13:34:08.497Z,2.80
2018-06-24T13:36:36.749Z,3.40
2018-06-24T13:39:07.110Z,2.80
2018-06-24T13:41:34.941Z,3.00
2018-06-24T13:44:02.993Z,2.87
2018-06-24T13:46:30.761Z,2.37
2018-06-24T13:48:58.836Z,2.77
2018-06-24T13:51:26.540Z,2.70
2018-06-24T13:53:54.131Z,2.53
2018-06-24T13:56:22.599Z,2.40
2018-06-24T13:58:50.284Z,2.50
2018-06-24T14:01:17.909Z,2.53
2018-06-24T14:03:46.117Z,2.17
2018-06-24T14:06:14.920Z,1.93
2018-06-24T14:08:42.549Z,2.40
2018-06-24T14:11:10.554Z,2.30
2018-06-24T14:13:38.133Z,2.10
2018-06-24T14:16:05.778Z,2.20
2018-06-24T14:18:33.417Z,2.17
2018-06-24T14:21:01.021Z,1.80
2018-06-24T14:23:28.806Z,2.20
2018-06-24T14:25:56.377Z,2.33
2018-06-24T14:28:24.154Z,2.07
2018-06-24T14:30:52.100Z,2.17
2018-06-24T14:33:20.168Z,2.47
2018-06-24T14:35:47.992Z,2.40
2018-06-24T14:38:15.581Z,2.40
2018-06-24T14:40:43.168Z,2.80
2018-06-24T14:43:10.776Z,2.60
2018-06-24T14:45:38.378Z,3.20
2018-06-24T14:48:06.076Z,2.93
2018-06-24T14:50:34.027Z,2.83
2018-06-24T14:53:01.675Z,2.80
2018-06-24T14:55:29.368Z,3.00
2018-06-24T14:57:57.324Z,2.60
2018-06-24T15:00:24.899Z,2.70
2018-06-24T15:02:53.086Z,2.60
2018-06-24T15:05:20.774Z,2.77
2018-06-24T15:07:48.379Z,3.17
2018-06-24T15:10:16.272Z,3.23
2018-06-24T15:12:44.524Z,3.50
2018-06-24T15:15:12.485Z,4.30
2018-06-24T15:17:40.604Z,3.80
2018-06-24T15:20:08.209Z,4.30
2018-06-24T15:22:35.769Z,4.60
2018-06-24T15:25:03.924Z,4.80
2018-06-24T15:27:31.714Z,4.83
2018-06-24T15:29:59.797Z,4.77
2018-06-24T15:32:27.828Z,5.23
2018-06-24T15:34:56.670Z,5.20
2018-06-24T15:37:24.973Z,5.83
2018-06-24T15:39:53.128Z,6.00
2018-06-24T15:42:21.104Z,6.47
2018-06-24T15:44:49.745Z,6.27
2018-06-24T15:47:17.589Z,7.03
2018-06-24T15:49:45.328Z,7.10
2018-06-24T15:52:14.021Z,7.30
2018-06-24T15:54:42.373Z,7.73
2018-06-24T15:57:10.479Z,7.63
2018-06-24T15:59:38.265Z,8.03
2018-06-24T16:02:06.642Z,8.40
2018-06-24T16:04:35.102Z,8.07
2018-06-24T16:07:02.878Z,8.30
2018-06-24T16:09:30.603Z,8.33
2018-06-24T16:11:58.666Z,9.03
2018-06-24T16:14:26.465Z,9.45
2018-06-24T16:16:54.146Z,9.50
2018-06-24T16:19:21.957Z,8.37
2018-06-24T16:21:50.065Z,8.87
2018-06-24T16:24:17.652Z,8.30
2018-06-24T16:26:45.269Z,7.90
2018-06-24T16:29:12.961Z,8.73
2018-06-24T16:31:40.590Z,8.10
2018-06-24T16:34:08.161Z,8.33
2018-06-24T16:36:35.715Z,8.47
2018-06-24T16:39:05.342Z,8.13
2018-06-24T16:41:32.961Z,8.80
2018-06-24T16:44:00.543Z,8.40
2018-06-24T16:46:28.181Z,8.73
2018-06-24T16:48:56.344Z,7.77
2018-06-24T16:51:23.922Z,8.37
2018-06-24T16:53:51.601Z,7.20
2018-06-24T16:56:19.197Z,7.53
2018-06-24T16:58:46.832Z,7.70
2018-06-24T17:01:14.573Z,7.40
2018-06-24T17:03:42.721Z,7.03
2018-06-24T17:06:12.028Z,6.73
2018-06-24T17:08:39.782Z,6.70
2018-06-24T17:11:07.544Z,6.30
2018-06-24T17:13:35.277Z,6.27
2018-06-24T17:16:03.152Z,6.57
2018-06-24T17:18:31.086Z,6.40
2018-06-24T17:20:59.088Z,5.83
2018-06-24T17:23:26.804Z,5.47
2018-06-24T17:25:54.658Z,5.70
2018-06-24T17:28:22.808Z,5.83
2018-06-24T17:30:52.310Z,5.03
2018-06-24T17:33:21.353Z,5.47
2018-06-24T17:35:49.080Z,4.53
2018-06-24T17:38:16.778Z,5.27
2018-06-24T17:40:44.597Z,4.90
2018-06-24T17:43:12.337Z,4.27
2018-06-24T17:45:40.429Z,4.50
2018-06-24T17:48:08.526Z,4.25
2018-06-24T17:50:36.919Z,4.30
2018-06-24T17:53:05.032Z,3.63
2018-06-24T17:55:33.839Z,3.83
2018-06-24T17:58:01.722Z,3.90
2018-06-24T18:00:29.854Z,3.50
2018-06-24T18:02:57.822Z,3.43
2018-06-24T18:05:26.055Z,3.60
2018-06-24T18:07:53.916Z,3.67
2018-06-24T18:10:21.759Z,3.43
2018-06-24T18:12:50.425Z,3.20
2018-06-24T18:15:18.147Z,3.63
2018-06-24T18:17:46.225Z,3.20
2018-06-24T18:20:14.282Z,3.90
2018-06-24T18:22:42.359Z,3.20
2018-06-24T18:25:10.516Z,3.20
2018-06-24T18:27:38.625Z,3.20
2018-06-24T18:30:06.937Z,3.17
2018-06-24T18:32:34.864Z,3.50
2018-06-24T18:35:02.799Z,3.03
2018-06-24T18:37:30.724Z,3.00
2018-06-24T18:39:59.662Z,2.73
2018-06-24T18:42:27.497Z,2.97
2018-06-24T18:44:55.446Z,2.90
2018-06-24T18:47:23.873Z,3.00
2018-06-24T18:49:51.455Z,2.90
2018-06-24T18:52:19.037Z,3.20
2018-06-24T18:54:46.632Z,2.90
2018-06-24T18:57:14.200Z,2.42
2018-06-24T18:59:41.756Z,2.67
2018-06-24T19:02:09.717Z,2.40
2018-06-24T19:04:37.273Z,2.90
2018-06-24T19:07:04.939Z,2.85
2018-06-24T19:09:32.524Z,2.10
2018-06-24T19:12:00.801Z,2.80
2018-06-24T19:14:28.383Z,2.17
2018-06-24T19:16:56.105Z,2.30
2018-06-24T19:19:23.757Z,2.83
2018-06-24T19:21:51.395Z,2.50
2018-06-24T19:24:19.048Z,2.50
2018-06-24T19:26:46.639Z,2.00
2018-06-24T19:29:14.593Z,2.13
2018-06-24T19:31:42.124Z,2.13
2018-06-24T19:34:09.677Z,1.80
2018-06-24T19:36:37.236Z,2.20
2018-06-24T19:39:07.529Z,1.97
2018-06-24T19:41:35.063Z,2.47
2018-06-24T19:44:02.805Z,2.17
2018-06-24T19:46:30.353Z,1.80
2018-06-24T19:48:57.897Z,2.10
2018-06-24T19:51:25.428Z,2.10
2018-06-24T19:53:52.974Z,2.10
2018-06-24T19:56:20.517Z,2.13
2018-06-24T19:58:48.074Z,2.20
2018-06-24T20:01:15.615Z,2.30
2018-06-24T20:03:43.179Z,2.47
2018-06-24T20:06:10.728Z,2.67
2018-06-24T20:08:38.948Z,2.50
2018-06-24T20:11:06.522Z,2.40
2018-06-24T20:13:34.058Z,2.83
2018-06-24T20:16:01.596Z,2.70
2018-06-24T20:18:29.132Z,2.50
2018-06-24T20:20:56.708Z,3.00
2018-06-24T20:23:24.156Z,2.70
2018-06-24T20:25:51.736Z,2.50
2018-06-24T20:28:19.291Z,2.67
2018-06-24T20:30:46.850Z,3.00
2018-06-24T20:33:14.364Z,3.10
2018-06-24T20:35:41.924Z,3.53
2018-06-24T20:38:09.452Z,3.00
2018-06-24T20:40:37.001Z,3.10
2018-06-24T20:43:04.943Z,3.20
2018-06-24T20:45:32.482Z,3.40
2018-06-24T20:48:00.010Z,3.23
2018-06-24T20:50:27.560Z,3.23
2018-06-24T20:52:55.079Z,3.73
2018-06-24T20:55:22.642Z,4.10
2018-06-24T20:57:50.342Z,4.20
2018-06-24T21:00:17.914Z,4.63
2018-06-24T21:02:45.437Z,4.57
2018-06-24T21:05:12.980Z,5.17
2018-06-24T21:07:40.498Z,5.53
2018-06-24T21:10:09.027Z,5.00
2018-06-24T21:12:37.548Z,5.40
2018-06-24T21:15:05.201Z,5.60
2018-06-24T21:17:32.738Z,6.37
2018-06-24T21:20:00.284Z,6.20
2018-06-24T21:22:27.812Z,6.30
2018-06-24T21:24:55.460Z,6.80
2018-06-24T21:27:22.996Z,6.87
2018-06-24T21:29:50.544Z,7.93
2018-06-24T21:32:18.089Z,8.47
2018-06-24T21:34:45.637Z,8.67
2018-06-24T21:37:13.802Z,9.27
2018-06-24T21:39:41.366Z,10.20
2018-06-24T21:42:08.935Z,9.73
2018-06-24T21:44:36.486Z,9.97
2018-06-24T21:47:04.048Z,10.50
2018-06-24T21:49:31.612Z,11.97
2018-06-24T21:51:59.137Z,12.03
2018-06-24T21:54:26.685Z,12.47
2018-06-24T21:56:54.212Z,12.17
2018-06-24T22:02:53.316Z,12.57
2018-06-24T22:05:20.848Z,13.50
2018-06-24T22:07:48.374Z,13.30
2018-06-24T22:10:15.924Z,13.67
2018-06-24T22:12:43.452Z,12.87
2018-06-24T22:15:11.347Z,14.30
2018-06-24T22:17:38.910Z,14.77
2018-06-24T22:20:06.452Z,13.97
2018-06-24T22:22:33.982Z,13.77
2018-06-24T22:25:01.569Z,12.97
2018-06-24T22:27:29.180Z,13.17
2018-06-24T22:29:56.730Z,13.77
2018-06-24T22:32:24.260Z,13.63
2018-06-24T22:34:51.821Z,14.03
2018-06-24T22:37:19.385Z,13.27
2018-06-24T22:39:46.909Z,14.23
2018-06-24T22:42:14.927Z,13.90
2018-06-24T22:44:42.458Z,14.80
2018-06-24T22:47:10.040Z,13.73
2018-06-24T22:49:37.576Z,13.97
2018-06-24T22:52:05.318Z,14.70
2018-06-24T22:54:32.841Z,14.23
2018-06-24T22:57:00.401Z,14.60
2018-06-24T22:59:39.198Z,14.27
2018-06-24T23:02:06.840Z,14.77
2018-06-24T23:04:34.358Z,14.63
2018-06-24T23:07:01.989Z,14.63
2018-06-24T23:09:29.468Z,14.73
2018-06-24T23:11:57.130Z,14.27
2018-06-24T23:14:24.640Z,14.13
2018-06-24T23:16:52.357Z,13.13
2018-06-24T23:19:19.888Z,13.63
2018-06-24T23:21:47.435Z,14.10
2018-06-24T23:24:14.957Z,14.57
2018-06-24T23:26:42.529Z,14.20
2018-06-24T23:29:10.105Z,14.20
2018-06-24T23:31:37.669Z,14.10
2018-06-24T23:34:05.255Z,13.70
2018-06-24T23:36:33.521Z,13.27
2018-06-24T23:39:01.045Z,13.57
2018-06-24T23:41:28.601Z,13.13
2018-06-24T23:43:56.117Z,13.17
2018-06-24T23:46:23.672Z,14.33
2018-06-24T23:48:51.202Z,14.50
2018-06-24T23:51:18.749Z,13.37
2018-06-24T23:53:46.292Z,14.38
2018-06-24T23:56:14.366Z,14.80
2018-06-24T23:58:41.904Z,13.10
